• Join FlightAware (Why Join?)
  • Login
  • US Flag 
Rudolph Flight #1: Arrived! 
01:05PM EST


 

Airport Tracker/Info


-or-


 

Live Flight TrackerFlight Track Log ✈ TCF3559 ✈ 23-Apr-2013 ✈ KIAH - KCMH

Flight Track Log - Related Links

Times and Time Zones

All times are in EDT time to prevent confusion due to time zone crossing. See the TCF3559 flight status page for this flight to view local times or setup timezone preferences in your user account.

Time Position Orientation Groundspeed Altitude Reporting Facility
EDT Latitude Longitude Course Direction KTS MPH feet Rate Location/Type
02:10PM 29.9767 -95.3008 30° Northeast 153 176 800  Level Houston Center
02:12PM 30.0394 -95.2761 19° North 235 270 2,600 1,320 Climbing Houston Center
02:13PM 30.1233 -95.2517 14° North 297 342 4,000 1,200 Climbing Houston Center
02:14PM 30.4434 -95.1440 27° Northeast  Level FlightAware Approximate
02:14PM 30.1953 -95.2331 13° North 289 333 5,100  Level Houston Center
02:15PM 30.5537 -95.0864 30° Northeast  Level FlightAware Approximate
02:15PM 30.2772 -95.2111 13° North 302 348 7,900  Level Houston Center
02:16PM 30.6577 -95.0116 30° Northeast  Level FlightAware Approximate
02:16PM 30.3600 -95.1875 14° North 314 361 10,800  Level Houston Center
02:17PM 30.4594 -95.1558 15° North 332 382 13,400 2,100 Climbing Houston Center
02:18PM 30.5461 -95.1019 28° Northeast 347 399 15,200 1,260 Climbing Houston Center
02:19PM 30.6603 -95.0308 28° Northeast 382 440 16,100 420 Climbing Houston Center
02:20PM 30.7525 -94.9739 28° Northeast 378 435 16,100 -60 Level Houston Center
02:21PM 30.8456 -94.9153 28° Northeast 379 436 16,000  Descending Houston Center
02:22PM 30.9389 -94.8569 28° Northeast 380 437 16,100 240 Climbing Houston Center
02:23PM 31.0319 -94.7989 28° Northeast 380 437 16,600 480 Climbing Houston Center
02:24PM 31.1267 -94.7392 28° Northeast 381 438 17,100 1,140 Climbing Fort Worth Center
02:25PM 31.2294 -94.6706 30° Northeast 381 438 18,900 1,860 Climbing Fort Worth Center
02:26PM 31.3303 -94.5997 31° Northeast 394 453 20,900 2,040 Climbing Fort Worth Center
02:27PM 31.4331 -94.5308 30° Northeast 406 467 23,000 2,040 Climbing Fort Worth Center
02:28PM 31.5358 -94.4592 31° Northeast 417 480 25,000 1,380 Climbing Fort Worth Center
02:29PM 31.6406 -94.3878 30° Northeast 422 486 25,800 1,080 Climbing Fort Worth Center
02:30PM 31.7494 -94.3108 31° Northeast 437 503 27,200 1,260 Climbing Fort Worth Center
02:31PM 31.8600 -94.2336 31° Northeast 443 510 28,400 1,200 Climbing Fort Worth Center
02:32PM 31.9708 -94.1564 31° Northeast 453 521 29,700 1,260 Climbing Fort Worth Center
02:33PM 32.0814 -94.0764 32° Northeast 458 527 31,000 1,080 Climbing Fort Worth Center
02:34PM 32.1697 -94.0142 31° Northeast 458 527 31,900 900 Climbing Fort Worth Center
02:35PM 32.2903 -93.9239 32° Northeast 458 527 32,900 1,080 Climbing Fort Worth Center
02:36PM 32.4008 -93.8458 31° Northeast 458 527 34,100 1,020 Climbing Fort Worth Center
02:37PM 32.5092 -93.7675 31° Northeast 458 527 35,000 420 Climbing Fort Worth Center
02:38PM 32.6217 -93.6889 30° Northeast 458 527 35,000  Level Fort Worth Center
02:39PM 32.7361 -93.6053 32° Northeast 458 527 35,000  Level Fort Worth Center
02:40PM 32.8506 -93.5261 30° Northeast 463 533 35,000  Level Fort Worth Center
02:41PM 32.9650 -93.4444 31° Northeast 463 533 35,000  Level Fort Worth Center
02:42PM 33.0792 -93.3600 32° Northeast 468 539 35,000  Level Fort Worth Center
02:43PM 33.1933 -93.2781 31° Northeast 473 544 35,000  Level Fort Worth Center
02:45PM 33.4161 -93.1172 31° Northeast 473 544 35,000  Level Memphis Center
02:46PM 33.5283 -93.0361 31° Northeast 473 544 35,000  Level Memphis Center
02:47PM 33.6428 -92.9547 31° Northeast 473 544 35,000  Level Memphis Center
02:48PM 33.7572 -92.8706 31° Northeast 478 550 35,000  Level Memphis Center
02:49PM 33.8694 -92.7889 31° Northeast 478 550 35,000  Level Memphis Center
02:50PM 33.9817 -92.7069 31° Northeast 478 550 35,000  Level Memphis Center
02:51PM 34.0917 -92.6194 33° Northeast 478 550 35,000  Level Memphis Center
02:52PM 34.2039 -92.5347 32° Northeast 478 550 35,000  Level Memphis Center
02:53PM 34.3181 -92.4494 32° Northeast 478 550 35,000  Level Memphis Center
02:54PM 34.4300 -92.3667 31° Northeast 478 550 35,000  Level Memphis Center
02:55PM 34.5439 -92.2811 32° Northeast 478 550 35,000  Level Memphis Center
02:56PM 34.6581 -92.1900 33° Northeast 478 550 35,000  Level Memphis Center
02:57PM 34.7556 -92.0786 43° Northeast 478 550 35,000  Level Memphis Center
02:58PM 34.8469 -91.9614 46° Northeast 473 544 35,000  Level Memphis Center
02:59PM 34.9422 -91.8417 46° Northeast 478 550 35,000  Level Memphis Center
03:00PM 35.0353 -91.7214 47° Northeast 478 550 35,000  Level Memphis Center
03:01PM 35.1264 -91.6011 47° Northeast 478 550 35,000  Level Memphis Center
03:02PM 35.2236 -91.4806 45° Northeast 483 556 35,000  Level Memphis Center
03:03PM 35.3142 -91.3569 48° Northeast 483 556 35,000  Level Memphis Center
03:04PM 35.4089 -91.2358 46° Northeast 483 556 35,000  Level Memphis Center
03:05PM 35.5036 -91.1169 46° Northeast 488 562 35,000  Level Memphis Center
03:06PM 35.5814 -91.0081 49° Northeast 478 550 35,000  Level Memphis Center
03:07PM 35.6717 -90.8861 48° Northeast 478 550 35,000  Level Memphis Center
03:08PM 35.7658 -90.7639 46° Northeast 478 550 35,000  Level Memphis Center
03:09PM 35.8603 -90.6414 46° Northeast 484 557 35,000  Level Memphis Center
03:10PM 35.9500 -90.5186 48° Northeast 489 563 35,000  Level Memphis Center
03:11PM 36.0439 -90.3928 47° Northeast 489 563 35,000  Level Memphis Center
03:12PM 36.1356 -90.2722 47° Northeast 489 563 35,000  Level Memphis Center
03:13PM 36.2292 -90.1461 47° Northeast 489 563 35,000  Level Memphis Center
03:14PM 36.3208 -90.0247 47° Northeast 489 563 35,000  Level Memphis Center
03:15PM 36.4119 -89.9006 48° Northeast 489 563 35,000  Level Memphis Center
03:16PM 36.5033 -89.7786 47° Northeast 484 557 35,000  Level Memphis Center
03:17PM 36.5944 -89.6514 48° Northeast 484 557 35,000  Level Memphis Center
03:18PM 36.6853 -89.5264 48° Northeast 484 557 35,000  Level Memphis Center
03:19PM 36.7842 -89.3906 48° Northeast 484 557 35,000  Level Memphis Center
03:20PM 36.8769 -89.2675 47° Northeast 484 557 35,000  Level Memphis Center
03:21PM 36.9656 -89.1392 49° Northeast 484 557 35,000  Level Memphis Center
03:22PM 37.0558 -89.0156 48° Northeast 479 551 35,000  Level Memphis Center
03:23PM 37.1442 -88.8919 48° Northeast 479 551 35,000  Level Memphis Center
03:24PM 37.2342 -88.7653 48° Northeast 479 551 35,000  Level Memphis Center
03:25PM 37.3261 -88.6381 48° Northeast 479 551 35,000  Level Memphis Center
03:27PM 37.5214 -88.3464 50° Northeast 480 552 35,000  Level Indianapolis Center
03:28PM 37.6092 -88.2211 48° Northeast 477 549 35,000  Level Indianapolis Center
03:29PM 37.6989 -88.0911 49° Northeast 476 548 35,000  Level Indianapolis Center
03:30PM 37.7644 -87.9417 61° Northeast 482 555 35,000  Level Indianapolis Center
03:31PM 37.8250 -87.7936 63° Northeast 487 560 35,000  Level Indianapolis Center
03:32PM 37.8861 -87.6419 63° Northeast 484 557 35,000  Level Indianapolis Center
03:33PM 37.9483 -87.4894 63° Northeast 486 559 35,000  Level Indianapolis Center
03:34PM 38.0214 -87.3061 63° Northeast 487 560 35,000  Level Indianapolis Center
03:35PM 38.0814 -87.1539 63° Northeast 485 558 35,000  Level Indianapolis Center
03:36PM 38.1422 -87.0008 63° Northeast 491 565 35,000 -360 Level Indianapolis Center
03:37PM 38.2028 -86.8472 63° Northeast 494 568 34,300 -540 Descending Indianapolis Center
03:39PM 38.2764 -86.6592 63° Northeast 498 573 34,000 -180 Descending Indianapolis Center
03:40PM 38.3386 -86.4986 64° Northeast 505 581 34,000 -180 Level Indianapolis Center
03:41PM 38.4006 -86.3372 64° Northeast 506 582 33,700 -900 Descending Indianapolis Center
03:42PM 38.4625 -86.1758 64° Northeast 506 582 32,200 -1,320 Descending Indianapolis Center
03:43PM 38.5244 -86.0153 64° Northeast 504 580 31,000 -600 Descending Indianapolis Center
03:44PM 38.5864 -85.8522 64° Northeast 508 585 31,000  Level Indianapolis Center
03:45PM 38.6589 -85.6603 64° Northeast 506 582 31,000  Level Indianapolis Center
03:46PM 38.7200 -85.5017 64° Northeast 497 572 31,000  Level Indianapolis Center
03:47PM 38.7792 -85.3403 65° Northeast 499 574 31,000  Level Indianapolis Center
03:48PM 38.8400 -85.1789 64° Northeast 501 577 31,000 -1,140 Level Indianapolis Center
03:49PM 38.8992 -85.0175 65° Northeast 499 574 28,700 -2,520 Descending Indianapolis Center
03:50PM 38.9622 -84.8469 65° Northeast 476 548 25,900 -2,280 Descending Indianapolis Center
03:51PM 39.0172 -84.7031 64° Northeast 449 517 24,000 -1,500 Descending Indianapolis Center
03:52PM 39.0869 -84.5722 55° Northeast 439 505 22,900 -1,260 Descending Indianapolis Center
03:53PM 39.1592 -84.4425 54° Northeast 442 509 21,400 -1,500 Descending Indianapolis Center
03:54PM 39.2303 -84.3131 55° Northeast 439 505 19,800 -1,500 Descending Indianapolis Center
03:55PM 39.2972 -84.1853 56° Northeast 425 489 18,300 -1,500 Descending Indianapolis Center
03:56PM 39.3589 -84.0294 63° Northeast 416 479 16,700 -1,560 Descending Indianapolis Center
03:57PM 39.4083 -83.9011 63° Northeast 397 457 15,100 -1,380 Descending Indianapolis Center
03:58PM 39.4561 -83.7744 64° Northeast 391 450 13,900 -1,140 Descending Indianapolis Center
03:59PM 39.4833 -83.7053 63° Northeast 395 455 13,400 -1,020 Descending Indianapolis Center
03:59PM 39.5042 -83.6478 65° Northeast 391 450 12,900 -1,080 Descending Indianapolis Center
04:00PM 39.5511 -83.5250 64° Northeast 383 441 11,800 -1,140 Descending Indianapolis Center
04:01PM 39.5822 -83.4417 64° Northeast 375 432 11,100 -780 Descending Indianapolis Center
04:01PM 39.5986 -83.4053 60° Northeast 376 433 11,000 -540 Descending Indianapolis Center
04:02PM 39.6444 -83.3325 51° Northeast 368 423 10,600 -1,020 Descending Indianapolis Center
04:02PM 39.6708 -83.2881 52° Northeast 359 413 10,000 -1,320 Descending Indianapolis Center
04:03PM 39.7014 -83.2392 51° Northeast 323 372 9,300 -1,500 Descending Indianapolis Center
04:03PM 39.7253 -83.1969 54° Northeast 328 377 8,500 -1,440 Descending Indianapolis Center
04:04PM 39.7511 -83.1583 49° Northeast 311 358 8,000 -1,380 Descending Indianapolis Center
04:04PM 39.7778 -83.1114 54° Northeast 308 354 7,100 -1,200 Descending Indianapolis Center
04:05PM 39.8031 -83.0719 50° Northeast 289 333 6,800 -600 Descending Indianapolis Center
04:05PM 39.8253 -83.0325 54° Northeast 285 328 6,500 -720 Descending Indianapolis Center
04:06PM 39.8456 -83.0008 50° Northeast 240 276 6,100 -540 Descending Indianapolis Center
04:06PM 39.8669 -82.9642 53° Northeast 249 287 6,000 -120 Descending Indianapolis Center
04:07PM 39.8881 -82.9297 51° Northeast 246 283 6,000 -240 Level Indianapolis Center
04:07PM 39.9089 -82.8931 53° Northeast 246 283 5,800 -1,020 Descending Indianapolis Center
04:08PM 39.9100 -82.8533 88° East 235 270 5,000 -1,920 Descending Indianapolis Center
04:09PM 39.9075 -82.7967 93° East 234 269 3,800 -1,620 Descending Indianapolis Center
04:09PM 39.9092 -82.7744 84° East 226 260 3,400 -780 Descending Indianapolis Center
04:10PM 39.9458 -82.7547 22° Northeast 216 249 3,000 -540 Descending Indianapolis Center
04:10PM 39.9647 -82.7536 North 187 215 2,900 -540 Descending Indianapolis Center
04:11PM 39.9864 -82.7772 320° Northwest 195 224 2,500 -840 Descending Indianapolis Center
04:11PM 39.9892 -82.7972 280° West 157 181 2,100 -1,440 Descending Indianapolis Center